createdAt,value
2023-04-01T00:00:09.443Z,0.43
2023-04-01T00:01:45.951Z,0.20
2023-04-01T00:03:20.664Z,0.40
2023-04-01T00:06:28.270Z,0.10
2023-04-01T00:08:01.981Z,0.40
2023-04-01T00:09:36.114Z,0.20
2023-04-01T00:11:09.841Z,0.10
2023-04-01T00:12:45.487Z,0.10
2023-04-01T00:14:22.160Z,0.30
2023-04-01T00:15:57.610Z,0.40
2023-04-01T00:17:31.781Z,0.60
2023-04-01T00:19:05.715Z,0.30
2023-04-01T00:20:39.853Z,0.40
2023-04-01T00:22:13.682Z,0.40
2023-04-01T00:23:47.445Z,0.40
2023-04-01T00:25:20.300Z,0.22
2023-04-01T00:26:54.040Z,0.13
2023-04-01T00:28:30.798Z,0.25
2023-04-01T00:30:05.755Z,0.10
2023-04-01T00:31:39.653Z,0.28
2023-04-01T00:33:13.842Z,0.22
2023-04-01T00:34:48.056Z,0.10
2023-04-01T00:36:24.349Z,0.20
2023-04-01T00:37:58.322Z,0.20
2023-04-01T00:39:32.709Z,0.10
2023-04-01T00:41:06.646Z,0.22
2023-04-01T00:42:40.659Z,0.13
2023-04-01T00:44:19.785Z,0.20
2023-04-01T00:45:53.682Z,0.35
2023-04-01T00:47:29.715Z,0.30
2023-04-01T00:49:03.700Z,0.30
2023-04-01T00:50:41.666Z,0.10
2023-04-01T00:52:20.193Z,0.10
2023-04-01T00:53:58.128Z,0.22
2023-04-01T00:55:37.874Z,0.10
2023-04-01T00:57:16.609Z,0.45
2023-04-01T00:58:57.253Z,0.40
2023-04-01T01:03:59.198Z,0.20
2023-04-01T01:06:00.717Z,0.20
2023-04-01T01:07:45.466Z,0.10
2023-04-01T01:09:47.246Z,0.30
2023-04-01T01:11:42.540Z,0.20
2023-04-01T01:13:27.500Z,0.10
2023-04-01T01:15:13.843Z,0.10
2023-04-01T01:16:57.368Z,0.17
2023-04-01T01:18:39.976Z,0.20
2023-04-01T01:21:08.915Z,0.20
2023-04-01T01:23:18.657Z,0.10
2023-04-01T01:25:12.752Z,0.10
2023-04-01T01:26:57.993Z,0.25
2023-04-01T01:28:49.750Z,0.20
2023-04-01T01:30:39.483Z,0.20
2023-04-01T01:32:32.607Z,0.20
2023-04-01T01:34:21.537Z,0.30
2023-04-01T01:36:06.426Z,0.10
2023-04-01T01:37:42.960Z,0.20
2023-04-01T01:39:27.532Z,0.20
2023-04-01T01:41:04.934Z,0.20
2023-04-01T01:42:44.169Z,0.10
2023-04-01T01:44:19.643Z,0.10
2023-04-01T01:45:59.132Z,0.10
2023-04-01T01:47:34.421Z,0.20
2023-04-01T01:49:14.015Z,0.20
2023-04-01T01:50:49.427Z,0.10
2023-04-01T01:52:24.157Z,0.30
2023-04-01T01:53:58.079Z,0.30
2023-04-01T01:55:34.948Z,0.00
2023-04-01T01:57:11.960Z,0.10
2023-04-01T01:58:53.551Z,0.30
2023-04-01T02:00:29.020Z,0.10
2023-04-01T02:03:45.221Z,0.20
2023-04-01T02:05:25.129Z,0.10
2023-04-01T02:07:04.997Z,0.20
2023-04-01T02:08:46.509Z,0.10
2023-04-01T02:10:24.176Z,0.20
2023-04-01T02:12:03.079Z,0.10
2023-04-01T02:13:49.916Z,0.10
2023-04-01T02:15:24.322Z,0.15
2023-04-01T02:17:02.151Z,0.10
2023-04-01T02:18:38.342Z,0.10
2023-04-01T02:20:18.271Z,0.20
2023-04-01T02:21:57.504Z,0.03
2023-04-01T02:23:30.077Z,0.00
2023-04-01T02:25:10.569Z,0.00
2023-04-01T02:26:45.711Z,0.03
2023-04-01T02:28:22.111Z,0.10
2023-04-01T02:29:55.976Z,0.03
2023-04-01T02:31:29.938Z,0.10
2023-04-01T02:33:05.933Z,0.10
2023-04-01T02:34:39.646Z,0.05
2023-04-01T02:36:15.490Z,0.10
2023-04-01T02:37:52.239Z,0.00
2023-04-01T02:39:26.483Z,0.20
2023-04-01T02:41:04.504Z,0.15
2023-04-01T02:42:38.192Z,0.20
2023-04-01T02:44:13.323Z,0.10
2023-04-01T02:45:46.453Z,0.10
2023-04-01T02:47:19.800Z,0.10
2023-04-01T02:48:53.076Z,0.10
2023-04-01T02:50:25.360Z,0.10
2023-04-01T02:51:58.455Z,0.00
2023-04-01T02:53:31.515Z,0.10
2023-04-01T02:55:05.698Z,0.10
2023-04-01T02:56:42.815Z,0.00
2023-04-01T02:58:16.255Z,0.00
2023-04-01T02:59:49.483Z,0.03
2023-04-01T03:01:23.870Z,0.03
2023-04-01T03:02:57.630Z,0.30
2023-04-01T03:04:31.009Z,0.35
2023-04-01T03:06:07.137Z,0.00
2023-04-01T03:07:41.096Z,0.00
2023-04-01T03:09:13.266Z,0.10
2023-04-01T03:10:46.309Z,0.10
2023-04-01T03:12:21.237Z,0.20
2023-04-01T03:13:57.533Z,0.10
2023-04-01T03:15:31.179Z,0.00
2023-04-01T03:17:04.450Z,0.10
2023-04-01T03:18:37.511Z,0.05
2023-04-01T03:20:12.944Z,0.08
2023-04-01T03:21:46.000Z,0.00
2023-04-01T03:23:20.558Z,0.13
2023-04-01T03:24:53.670Z,0.10
2023-04-01T03:26:28.736Z,0.40
2023-04-01T03:28:03.249Z,0.00
2023-04-01T03:29:35.719Z,0.10
2023-04-01T03:31:09.559Z,0.08
2023-04-01T03:32:49.160Z,0.00
2023-04-01T03:34:22.232Z,0.00
2023-04-01T03:35:55.573Z,0.00
2023-04-01T03:37:28.701Z,0.00
2023-04-01T03:39:00.827Z,0.00
2023-04-01T03:40:44.647Z,0.10
2023-04-01T03:42:18.489Z,0.10
2023-04-01T03:43:52.883Z,0.00
2023-04-01T03:45:26.443Z,0.00
2023-04-01T03:46:59.698Z,0.10
2023-04-01T03:48:42.501Z,0.10
2023-04-01T03:50:15.621Z,0.05
2023-04-01T03:51:48.127Z,0.00
2023-04-01T03:53:21.660Z,0.00
2023-04-01T03:54:54.373Z,0.00
2023-04-01T03:56:28.048Z,0.40
2023-04-01T03:58:02.851Z,0.10
2023-04-01T03:59:37.495Z,0.00
2023-04-01T04:01:22.048Z,0.15
2023-04-01T04:02:57.841Z,0.08
2023-04-01T04:04:36.911Z,0.00
2023-04-01T04:06:13.283Z,0.10
2023-04-01T04:07:46.410Z,0.10
2023-04-01T04:09:19.462Z,0.00
2023-04-01T04:10:57.590Z,0.00
2023-04-01T04:12:30.736Z,0.00
2023-04-01T04:14:03.849Z,0.00
2023-04-01T04:15:38.239Z,0.00
2023-04-01T04:17:16.880Z,0.00
2023-04-01T04:18:51.867Z,0.00
2023-04-01T04:20:25.341Z,0.00
2023-04-01T04:21:58.558Z,0.00
2023-04-01T04:23:34.281Z,0.00
2023-04-01T04:25:08.902Z,0.00
2023-04-01T04:26:43.282Z,0.03
2023-04-01T04:28:15.373Z,0.00
2023-04-01T04:29:48.793Z,0.00
2023-04-01T04:31:25.777Z,0.05
2023-04-01T04:33:00.401Z,0.00
2023-04-01T04:34:34.107Z,0.00
2023-04-01T04:36:08.508Z,0.00
2023-04-01T04:37:41.678Z,0.03
2023-04-01T04:39:14.803Z,0.00
2023-04-01T04:40:49.654Z,0.10
2023-04-01T04:42:22.861Z,0.03
2023-04-01T04:44:00.013Z,0.00
2023-04-01T04:45:33.979Z,0.00
2023-04-01T04:47:09.059Z,0.00
2023-04-01T04:48:44.675Z,0.08
2023-04-01T04:50:18.186Z,0.00
2023-04-01T04:51:51.615Z,0.10
2023-04-01T04:55:00.305Z,0.00
2023-04-01T04:56:33.930Z,0.00
2023-04-01T04:58:11.861Z,0.00
2023-04-01T04:59:48.460Z,0.00
2023-04-01T05:01:40.985Z,0.00
2023-04-01T05:03:16.328Z,0.00
2023-04-01T05:04:49.885Z,0.08
2023-04-01T05:06:23.784Z,0.08
2023-04-01T05:07:57.127Z,0.00
2023-04-01T05:09:30.197Z,0.00
2023-04-01T05:11:04.959Z,0.10
2023-04-01T05:12:40.320Z,0.10
2023-04-01T05:14:16.878Z,0.05
2023-04-01T05:15:56.412Z,0.10
2023-04-01T05:17:29.576Z,0.00
2023-04-01T05:19:04.037Z,0.00
2023-04-01T05:20:37.575Z,0.10
2023-04-01T05:22:11.295Z,0.00
2023-04-01T05:23:45.114Z,0.10
2023-04-01T05:25:18.321Z,0.10
2023-04-01T05:26:51.430Z,0.10
2023-04-01T05:28:24.850Z,0.00
2023-04-01T05:29:58.141Z,0.00
2023-04-01T05:31:47.396Z,0.00
2023-04-01T05:33:20.814Z,0.10
2023-04-01T05:34:55.789Z,0.00
2023-04-01T05:36:29.009Z,0.13
2023-04-01T05:38:03.066Z,0.03
2023-04-01T05:39:39.316Z,0.00
2023-04-01T05:41:12.534Z,0.00
2023-04-01T05:42:49.489Z,0.00
2023-04-01T05:44:23.683Z,0.03
2023-04-01T05:46:25.921Z,0.00
2023-04-01T05:49:45.337Z,0.10
2023-04-01T05:51:20.021Z,0.05
2023-04-01T05:52:53.542Z,0.08
2023-04-01T05:54:26.840Z,0.00
2023-04-01T05:56:04.791Z,0.00
2023-04-01T05:57:42.738Z,0.00
2023-04-01T05:59:16.080Z,0.08
2023-04-01T06:00:59.063Z,0.00
2023-04-01T06:04:14.635Z,0.25
2023-04-01T06:05:48.066Z,0.00
2023-04-01T06:07:22.541Z,0.08
2023-04-01T06:08:58.896Z,0.10
2023-04-01T06:10:49.539Z,0.00
2023-04-01T06:13:02.438Z,0.17
2023-04-01T06:14:53.541Z,0.10
2023-04-01T06:16:41.708Z,0.00
2023-04-01T06:18:46.984Z,0.00
2023-04-01T06:20:33.646Z,0.10
2023-04-01T06:23:02.093Z,0.10
2023-04-01T06:25:00.455Z,0.20
2023-04-01T06:26:41.208Z,0.10
2023-04-01T06:29:02.290Z,0.10
2023-04-01T06:32:40.895Z,0.10
2023-04-01T06:34:44.931Z,0.10
2023-04-01T06:36:47.635Z,0.10
2023-04-01T06:38:43.292Z,0.10
2023-04-01T06:40:47.626Z,0.10
2023-04-01T06:43:02.031Z,0.10
2023-04-01T06:45:11.342Z,0.10
2023-04-01T06:47:20.540Z,0.10
2023-04-01T06:49:43.263Z,0.00
2023-04-01T06:51:53.618Z,0.10
2023-04-01T06:53:58.765Z,0.08
2023-04-01T06:56:01.417Z,0.10
2023-04-01T06:58:02.382Z,0.05
2023-04-01T06:59:39.326Z,0.10
2023-04-01T07:01:21.543Z,0.08
2023-04-01T07:03:06.627Z,0.00
2023-04-01T07:04:45.417Z,0.05
2023-04-01T07:06:31.998Z,0.10
2023-04-01T07:08:12.012Z,0.13
2023-04-01T07:09:54.719Z,0.10
2023-04-01T07:11:39.981Z,0.15
2023-04-01T07:13:54.214Z,0.22
2023-04-01T07:15:35.453Z,0.10
2023-04-01T07:17:19.580Z,0.10
2023-04-01T07:18:59.795Z,0.20
2023-04-01T07:20:41.014Z,0.10
2023-04-01T07:22:30.990Z,0.10
2023-04-01T07:24:18.709Z,0.10
2023-04-01T07:26:13.059Z,0.10
2023-04-01T07:28:18.485Z,0.10
2023-04-01T07:29:58.616Z,0.10
2023-04-01T07:32:15.647Z,0.10
2023-04-01T07:34:03.498Z,0.08
2023-04-01T07:35:47.993Z,0.00
2023-04-01T07:37:30.773Z,0.15
2023-04-01T07:39:26.001Z,0.20
2023-04-01T07:41:26.873Z,0.10
2023-04-01T07:43:39.384Z,0.28
2023-04-01T07:45:42.999Z,0.10
2023-04-01T07:47:49.201Z,0.00
2023-04-01T07:49:33.176Z,0.10
2023-04-01T07:51:18.039Z,0.10
2023-04-01T07:53:10.108Z,0.10
2023-04-01T07:56:32.212Z,0.10
2023-04-01T07:58:16.578Z,0.10
2023-04-01T08:00:03.665Z,0.10
2023-04-01T08:02:12.567Z,0.08
2023-04-01T08:04:11.727Z,0.10
2023-04-01T08:05:57.662Z,0.05
2023-04-01T08:07:46.952Z,0.10
2023-04-01T08:09:49.195Z,0.10
2023-04-01T08:12:00.605Z,0.10
2023-04-01T08:14:05.810Z,0.08
2023-04-01T08:16:14.941Z,0.00
2023-04-01T08:18:09.794Z,0.03
2023-04-01T08:20:04.228Z,0.00
2023-04-01T08:21:47.752Z,0.10
2023-04-01T08:23:26.111Z,0.00
2023-04-01T08:25:04.284Z,0.10
2023-04-01T08:26:46.047Z,0.10
2023-04-01T08:28:29.908Z,0.00
2023-04-01T08:30:19.700Z,0.00
2023-04-01T08:31:58.655Z,0.05
2023-04-01T08:33:33.515Z,0.10
2023-04-01T08:35:29.313Z,0.10
2023-04-01T08:37:11.717Z,0.10
2023-04-01T08:38:51.173Z,0.00
2023-04-01T08:40:57.715Z,0.10
2023-04-01T08:43:05.832Z,0.10
2023-04-01T08:45:14.409Z,0.00
2023-04-01T08:47:26.506Z,0.03
2023-04-01T08:51:29.030Z,0.00
2023-04-01T08:53:12.614Z,0.10
2023-04-01T08:55:33.089Z,0.10
2023-04-01T08:57:20.239Z,0.10
2023-04-01T08:59:52.774Z,0.10
2023-04-01T09:02:17.733Z,0.00
2023-04-01T09:04:28.170Z,0.10
2023-04-01T09:06:33.653Z,0.10
2023-04-01T09:08:30.591Z,0.25
2023-04-01T09:10:58.661Z,0.10
2023-04-01T09:13:27.788Z,0.10
2023-04-01T09:15:38.682Z,0.10
2023-04-01T09:17:52.928Z,0.10
2023-04-01T09:19:52.272Z,0.10
2023-04-01T09:22:01.070Z,0.10
2023-04-01T09:26:02.625Z,0.28
2023-04-01T09:27:46.362Z,0.10
2023-04-01T09:29:42.396Z,0.10
2023-04-01T09:32:02.021Z,0.30
2023-04-01T09:34:41.160Z,0.10
2023-04-01T09:36:35.428Z,0.10
2023-04-01T09:38:26.010Z,0.03
2023-04-01T09:40:19.040Z,0.20
2023-04-01T09:42:19.967Z,0.00
2023-04-01T09:44:16.740Z,0.10
2023-04-01T09:46:21.395Z,0.10
2023-04-01T09:48:17.274Z,0.10
2023-04-01T09:50:26.571Z,0.05
2023-04-01T09:52:32.138Z,0.10
2023-04-01T09:56:47.492Z,0.10
2023-04-01T09:59:20.521Z,0.17
2023-04-01T10:02:09.553Z,0.10
2023-04-01T10:04:25.784Z,0.20
2023-04-01T10:07:01.240Z,0.20
2023-04-01T10:09:12.491Z,0.20
2023-04-01T10:11:23.776Z,0.10
2023-04-01T10:13:28.067Z,0.13
2023-04-01T10:16:02.167Z,0.28
2023-04-01T10:18:15.146Z,0.20
2023-04-01T10:21:00.947Z,0.20
2023-04-01T10:23:29.893Z,0.35
2023-04-01T10:25:59.779Z,0.50
2023-04-01T10:28:10.167Z,0.40
2023-04-01T10:30:58.325Z,0.40
2023-04-01T10:33:20.317Z,0.40
2023-04-01T10:35:37.321Z,0.43
2023-04-01T10:37:36.850Z,0.73
2023-04-01T10:39:49.052Z,0.80
2023-04-01T10:42:16.747Z,0.90
2023-04-01T10:45:05.961Z,0.90
2023-04-01T10:47:53.981Z,0.75
2023-04-01T10:50:12.284Z,0.50
2023-04-01T10:52:43.318Z,0.57
2023-04-01T10:54:49.383Z,0.43
2023-04-01T10:56:47.553Z,0.47
2023-04-01T10:59:30.227Z,0.40
2023-04-01T11:02:09.976Z,0.30
2023-04-01T11:05:08.360Z,0.30
2023-04-01T11:07:46.554Z,0.30
2023-04-01T11:10:03.524Z,0.30
2023-04-01T11:12:12.262Z,0.40
2023-04-01T11:14:46.333Z,0.30
2023-04-01T11:17:08.349Z,0.40
2023-04-01T11:19:40.911Z,0.45
2023-04-01T11:21:54.452Z,0.40
2023-04-01T11:24:06.093Z,0.60
2023-04-01T11:26:04.613Z,0.60
2023-04-01T11:28:29.519Z,0.60
2023-04-01T11:30:28.060Z,0.70
2023-04-01T11:32:21.516Z,0.73
2023-04-01T11:34:04.831Z,0.60
2023-04-01T11:36:20.057Z,0.52
2023-04-01T11:38:04.880Z,0.60
2023-04-01T11:40:13.146Z,0.50
2023-04-01T11:42:26.580Z,0.77
2023-04-01T11:44:22.348Z,0.40
2023-04-01T11:46:45.007Z,0.40
2023-04-01T11:48:53.762Z,0.40
2023-04-01T11:50:47.073Z,0.40
2023-04-01T11:52:57.089Z,0.50
2023-04-01T11:54:48.451Z,0.30
2023-04-01T11:56:46.559Z,0.20
2023-04-01T11:58:46.820Z,0.28
2023-04-01T12:01:01.441Z,0.17
2023-04-01T12:02:50.642Z,0.30
2023-04-01T12:04:57.882Z,0.25
2023-04-01T12:06:44.067Z,0.20
2023-04-01T12:08:35.974Z,0.30
2023-04-01T12:10:22.848Z,0.20
2023-04-01T12:12:19.509Z,0.30
2023-04-01T12:14:04.984Z,0.20
2023-04-01T12:15:58.676Z,0.20
2023-04-01T12:17:47.118Z,0.10
2023-04-01T12:19:34.724Z,0.10
2023-04-01T12:21:24.603Z,0.10
2023-04-01T12:23:15.643Z,0.20
2023-04-01T12:24:54.838Z,0.20
2023-04-01T12:27:01.690Z,0.30
2023-04-01T12:28:56.211Z,0.22
2023-04-01T12:31:05.677Z,0.20
2023-04-01T12:32:51.846Z,0.20
2023-04-01T12:34:59.362Z,0.20
2023-04-01T12:36:55.957Z,0.35
2023-04-01T12:38:43.174Z,0.20
2023-04-01T12:40:34.071Z,0.17
2023-04-01T12:42:29.666Z,0.25
2023-04-01T12:44:31.714Z,0.10
2023-04-01T12:46:18.051Z,0.20
2023-04-01T12:48:41.909Z,0.22
2023-04-01T12:51:03.379Z,0.20
2023-04-01T12:52:52.851Z,0.20
2023-04-01T12:55:20.798Z,0.30
2023-04-01T12:57:09.124Z,0.20
2023-04-01T12:59:24.126Z,0.30
2023-04-01T13:01:25.418Z,0.22
2023-04-01T13:03:25.332Z,0.20
2023-04-01T13:05:34.139Z,0.20
2023-04-01T13:07:39.825Z,0.30
2023-04-01T13:09:26.760Z,0.30
2023-04-01T13:11:15.730Z,0.30
2023-04-01T13:13:21.895Z,0.35
2023-04-01T13:15:27.041Z,0.40
2023-04-01T13:17:15.118Z,0.20
2023-04-01T13:19:00.922Z,0.50
2023-04-01T13:20:51.016Z,0.43
2023-04-01T13:22:35.475Z,0.40
2023-04-01T13:24:26.393Z,0.40
2023-04-01T13:26:14.900Z,0.50
2023-04-01T13:27:57.119Z,0.43
2023-04-01T13:29:37.402Z,0.50
2023-04-01T13:31:31.436Z,0.47
2023-04-01T13:33:30.464Z,0.73
2023-04-01T13:35:23.041Z,0.55
2023-04-01T13:37:17.921Z,0.73
2023-04-01T13:39:25.043Z,0.85
2023-04-01T13:41:13.261Z,0.77
2023-04-01T13:42:55.817Z,0.60
2023-04-01T13:44:38.731Z,0.80
2023-04-01T13:46:56.380Z,0.70
2023-04-01T13:48:47.583Z,1.02
2023-04-01T13:50:52.144Z,1.20
2023-04-01T13:53:09.123Z,1.00
2023-04-01T13:55:24.062Z,1.20
2023-04-01T13:57:18.757Z,1.20
2023-04-01T13:59:41.893Z,1.17
2023-04-01T14:01:24.050Z,1.00
2023-04-01T14:03:32.247Z,1.17
2023-04-01T14:05:44.765Z,1.10
2023-04-01T14:07:52.080Z,1.05
2023-04-01T14:10:01.332Z,0.98
2023-04-01T14:11:46.947Z,0.90
2023-04-01T14:13:35.214Z,1.02
2023-04-01T14:15:39.792Z,0.90
2023-04-01T14:17:39.658Z,1.40
2023-04-01T14:19:33.470Z,1.45
2023-04-01T14:21:29.238Z,1.48
2023-04-01T14:23:32.566Z,1.25
2023-04-01T14:25:48.780Z,1.20
2023-04-01T14:27:47.910Z,1.40
2023-04-01T14:29:35.449Z,1.30
2023-04-01T14:31:32.561Z,1.00
2023-04-01T14:33:37.559Z,1.00
2023-04-01T14:35:37.623Z,1.27
2023-04-01T14:37:29.056Z,1.02
2023-04-01T14:39:31.309Z,0.70
2023-04-01T14:41:20.951Z,0.88
2023-04-01T14:43:39.371Z,0.68
2023-04-01T14:45:47.773Z,0.60
2023-04-01T14:47:48.371Z,0.77
2023-04-01T14:49:32.471Z,0.90
2023-04-01T14:51:18.172Z,0.70
2023-04-01T14:53:11.023Z,0.82
2023-04-01T14:54:48.534Z,0.77
2023-04-01T14:56:41.877Z,0.63
2023-04-01T14:58:18.104Z,1.00
2023-04-01T15:00:01.597Z,0.80
2023-04-01T15:01:49.405Z,1.27
2023-04-01T15:03:31.300Z,0.85
2023-04-01T15:05:18.168Z,0.80
2023-04-01T15:07:11.205Z,0.77
2023-04-01T15:08:58.612Z,0.90
2023-04-01T15:11:14.885Z,0.75
2023-04-01T15:14:57.727Z,0.60
2023-04-01T15:16:43.474Z,0.80
2023-04-01T15:18:31.720Z,0.73
2023-04-01T15:20:31.692Z,0.85
2023-04-01T15:22:34.746Z,0.80
2023-04-01T15:24:17.335Z,0.60
2023-04-01T15:26:28.168Z,0.82
2023-04-01T15:28:11.406Z,0.60
2023-04-01T15:30:05.977Z,0.40
2023-04-01T15:31:49.022Z,0.70
2023-04-01T15:33:56.282Z,0.85
2023-04-01T15:35:44.765Z,0.50
2023-04-01T15:37:34.854Z,0.93
2023-04-01T15:39:17.713Z,0.63
2023-04-01T15:41:04.900Z,0.73
2023-04-01T15:42:57.506Z,1.13
2023-04-01T15:44:55.062Z,0.70
2023-04-01T15:46:46.619Z,0.60
2023-04-01T15:48:38.292Z,0.70
2023-04-01T15:51:03.878Z,0.70
2023-04-01T15:52:52.290Z,0.73
2023-04-01T15:54:53.518Z,0.50
2023-04-01T15:56:47.030Z,0.63
2023-04-01T15:58:50.440Z,0.55
2023-04-01T16:00:31.032Z,0.55
2023-04-01T16:02:22.146Z,0.70
2023-04-01T16:04:09.274Z,0.75
2023-04-01T16:06:01.820Z,0.65
2023-04-01T16:08:04.107Z,0.60
2023-04-01T16:09:57.995Z,0.50
2023-04-01T16:11:45.004Z,0.60
2023-04-01T16:13:35.616Z,0.80
2023-04-01T16:15:26.466Z,0.60
2023-04-01T16:17:18.820Z,0.70
2023-04-01T16:19:34.197Z,0.70
2023-04-01T16:21:16.947Z,0.70
2023-04-01T16:23:03.850Z,0.60
2023-04-01T16:24:46.600Z,0.90
2023-04-01T16:26:30.511Z,0.70
2023-04-01T16:28:22.030Z,0.70
2023-04-01T16:30:04.982Z,0.70
2023-04-01T16:31:48.602Z,0.68
2023-04-01T16:33:34.135Z,0.63
2023-04-01T16:35:27.920Z,0.70
2023-04-01T16:37:14.069Z,0.88
2023-04-01T16:38:57.826Z,0.80
2023-04-01T16:40:46.748Z,0.70
2023-04-01T16:42:40.938Z,0.68
2023-04-01T16:44:22.470Z,0.70
2023-04-01T16:46:15.598Z,0.57
2023-04-01T16:47:54.928Z,0.73
2023-04-01T16:49:38.586Z,0.60
2023-04-01T16:51:18.247Z,0.95
2023-04-01T16:53:03.545Z,0.65
2023-04-01T16:54:47.515Z,0.60
2023-04-01T16:56:25.402Z,0.70
2023-04-01T16:58:02.698Z,0.60
2023-04-01T16:59:40.560Z,0.70
2023-04-01T17:01:23.810Z,0.55
2023-04-01T17:03:12.957Z,0.90
2023-04-01T17:04:50.064Z,0.70
2023-04-01T17:06:38.577Z,0.50
2023-04-01T17:08:30.347Z,0.63
2023-04-01T17:10:34.369Z,0.43
2023-04-01T17:12:20.923Z,0.50
2023-04-01T17:14:11.549Z,0.50
2023-04-01T17:15:59.808Z,0.35
2023-04-01T17:17:47.440Z,0.52
2023-04-01T17:19:47.217Z,0.35
2023-04-01T17:21:27.497Z,0.32
2023-04-01T17:23:07.213Z,0.40
2023-04-01T17:25:05.519Z,0.60
2023-04-01T17:26:52.086Z,0.40
2023-04-01T17:28:46.839Z,0.50
2023-04-01T17:30:29.933Z,0.52
2023-04-01T17:32:13.659Z,0.50
2023-04-01T17:34:22.078Z,0.60
2023-04-01T17:36:04.282Z,0.52
2023-04-01T17:37:53.902Z,0.60
2023-04-01T17:39:58.484Z,0.50
2023-04-01T17:41:49.015Z,0.60
2023-04-01T17:43:41.407Z,0.50
2023-04-01T17:45:26.763Z,0.60
2023-04-01T17:47:30.567Z,0.40
2023-04-01T17:49:25.523Z,0.60
2023-04-01T17:51:19.253Z,0.65
2023-04-01T17:53:13.809Z,0.65
2023-04-01T17:54:55.257Z,0.70
2023-04-01T17:56:43.766Z,0.52
2023-04-01T17:58:23.583Z,0.90
2023-04-01T18:00:05.512Z,1.20
2023-04-01T18:01:59.319Z,0.95
2023-04-01T18:04:10.605Z,1.13
2023-04-01T18:06:04.767Z,0.95
2023-04-01T18:08:10.406Z,0.60
2023-04-01T18:10:01.896Z,0.82
2023-04-01T18:11:53.556Z,0.80
2023-04-01T18:14:17.705Z,0.90
2023-04-01T18:16:11.794Z,0.90
2023-04-01T18:18:05.051Z,0.80
2023-04-01T18:19:54.559Z,0.63
2023-04-01T18:21:44.949Z,0.70
2023-04-01T18:23:31.593Z,0.98
2023-04-01T18:25:23.348Z,1.00
2023-04-01T18:27:06.631Z,1.00
2023-04-01T18:28:46.360Z,1.00
2023-04-01T18:30:24.317Z,1.30
2023-04-01T18:32:17.348Z,1.30
2023-04-01T18:34:02.876Z,1.50
2023-04-01T18:35:54.131Z,1.60
2023-04-01T18:37:34.757Z,1.50
2023-04-01T18:39:16.775Z,1.33
2023-04-01T18:40:56.501Z,1.10
2023-04-01T18:42:45.296Z,1.38
2023-04-01T18:44:31.290Z,2.60
2023-04-01T18:46:18.736Z,1.52
2023-04-01T18:48:08.701Z,1.17
2023-04-01T18:49:50.409Z,1.52
2023-04-01T18:51:37.755Z,1.33
2023-04-01T18:53:24.163Z,1.02
2023-04-01T18:57:10.235Z,0.85
2023-04-01T18:58:52.444Z,1.20
2023-04-01T19:00:34.874Z,1.38
2023-04-01T19:02:28.703Z,1.25
2023-04-01T19:04:15.414Z,1.15
2023-04-01T19:05:52.425Z,1.05
2023-04-01T19:07:44.756Z,0.93
2023-04-01T19:09:26.550Z,1.10
2023-04-01T19:11:11.954Z,1.00
2023-04-01T19:13:04.428Z,1.00
2023-04-01T19:14:55.711Z,0.80
2023-04-01T19:16:51.410Z,1.05
2023-04-01T19:18:56.907Z,0.80
2023-04-01T19:20:39.930Z,1.10
2023-04-01T19:22:43.209Z,0.90
2023-04-01T19:24:47.814Z,0.85
2023-04-01T19:26:30.788Z,1.08
2023-04-01T19:28:22.697Z,1.10
2023-04-01T19:30:21.316Z,1.58
2023-04-01T19:32:12.768Z,1.20
2023-04-01T19:34:04.983Z,1.08
2023-04-01T19:35:46.989Z,1.25
2023-04-01T19:37:34.006Z,1.10
2023-04-01T19:39:28.725Z,1.75
2023-04-01T19:41:26.327Z,2.30
2023-04-01T19:43:09.147Z,2.80
2023-04-01T19:45:00.640Z,2.20
2023-04-01T19:46:41.925Z,1.73
2023-04-01T19:48:43.522Z,1.20
2023-04-01T19:50:36.789Z,2.78
2023-04-01T19:52:19.721Z,1.73
2023-04-01T19:54:05.866Z,1.40
2023-04-01T19:55:50.197Z,1.52
2023-04-01T19:57:37.226Z,1.45
2023-04-01T19:59:22.346Z,1.30
2023-04-01T20:01:00.865Z,1.80
2023-04-01T20:02:58.042Z,1.58
2023-04-01T20:04:40.851Z,1.73
2023-04-01T20:06:26.360Z,1.50
2023-04-01T20:08:10.641Z,1.58
2023-04-01T20:10:04.019Z,1.85
2023-04-01T20:11:52.286Z,1.50
2023-04-01T20:13:41.374Z,1.77
2023-04-01T20:15:32.564Z,1.80
2023-04-01T20:17:22.577Z,1.40
2023-04-01T20:19:01.350Z,1.48
2023-04-01T20:20:37.322Z,2.60
2023-04-01T20:22:30.780Z,2.50
2023-04-01T20:24:19.277Z,2.03
2023-04-01T20:25:57.941Z,2.42
2023-04-01T20:27:37.693Z,2.33
2023-04-01T20:29:37.671Z,2.20
2023-04-01T20:31:29.477Z,1.70
2023-04-01T20:33:34.812Z,2.00
2023-04-01T20:35:45.697Z,1.92
2023-04-01T20:37:36.658Z,1.55
2023-04-01T20:40:08.643Z,2.45
2023-04-01T20:42:02.293Z,1.67
2023-04-01T20:43:52.306Z,1.50
2023-04-01T20:45:42.007Z,1.70
2023-04-01T20:47:36.538Z,1.92
2023-04-01T20:49:38.991Z,1.83
2023-04-01T20:51:18.249Z,1.73
2023-04-01T20:53:03.411Z,1.50
2023-04-01T20:55:03.143Z,1.85
2023-04-01T20:56:57.421Z,2.40
2023-04-01T20:58:45.085Z,2.10
2023-04-01T21:00:38.278Z,2.72
2023-04-01T21:02:31.675Z,2.63
2023-04-01T21:04:29.835Z,3.05
2023-04-01T21:06:32.562Z,3.08
2023-04-01T21:08:16.619Z,3.35
2023-04-01T21:10:14.523Z,2.80
2023-04-01T21:15:49.961Z,1.73
2023-04-01T21:17:41.696Z,2.30
2023-04-01T21:19:34.765Z,2.50
2023-04-01T21:21:52.246Z,2.42
2023-04-01T21:23:43.997Z,2.25
2023-04-01T21:25:31.519Z,2.38
2023-04-01T21:27:20.701Z,1.92
2023-04-01T21:29:34.820Z,1.95
2023-04-01T21:31:29.502Z,1.67
2023-04-01T21:33:26.367Z,1.83
2023-04-01T21:35:09.065Z,2.70
2023-04-01T21:37:10.545Z,2.58
2023-04-01T21:39:07.921Z,2.75
2023-04-01T21:41:25.357Z,2.50
2023-04-01T21:43:15.032Z,2.05
2023-04-01T21:45:21.635Z,2.38
2023-04-01T21:48:02.435Z,1.90
2023-04-01T21:50:14.707Z,2.30
2023-04-01T21:52:36.269Z,1.80
2023-04-01T21:54:49.879Z,1.50
2023-04-01T21:57:24.314Z,1.73
2023-04-01T21:59:47.164Z,1.50
2023-04-01T22:02:05.282Z,1.30
2023-04-01T22:04:23.824Z,1.65
2023-04-01T22:06:11.201Z,1.50
2023-04-01T22:07:57.823Z,1.40
2023-04-01T22:09:40.710Z,1.40
2023-04-01T22:11:33.369Z,1.30
2023-04-01T22:13:18.046Z,1.20
2023-04-01T22:15:03.117Z,1.52
2023-04-01T22:16:47.567Z,1.33
2023-04-01T22:18:34.962Z,1.35
2023-04-01T22:20:25.822Z,1.40
2023-04-01T22:22:10.002Z,1.30
2023-04-01T22:24:00.933Z,1.70
2023-04-01T22:25:43.957Z,1.27
2023-04-01T22:27:29.227Z,1.30
2023-04-01T22:29:11.569Z,1.40
2023-04-01T22:30:52.927Z,1.38
2023-04-01T22:32:33.775Z,1.27
2023-04-01T22:34:17.852Z,1.45
2023-04-01T22:36:02.811Z,1.40
2023-04-01T22:37:53.683Z,1.70
2023-04-01T22:39:51.153Z,1.90
2023-04-01T22:41:46.460Z,1.77
2023-04-01T22:43:31.992Z,1.70
2023-04-01T22:45:33.472Z,1.80
2023-04-01T22:47:24.724Z,1.52
2023-04-01T22:49:07.288Z,1.58
2023-04-01T22:50:49.230Z,1.40
2023-04-01T22:52:33.331Z,1.02
2023-04-01T22:54:19.613Z,0.68
2023-04-01T22:57:49.959Z,0.20
2023-04-01T22:59:33.624Z,0.30
2023-04-01T23:01:14.591Z,0.40
2023-04-01T23:03:06.875Z,0.30
2023-04-01T23:04:48.995Z,0.38
2023-04-01T23:06:29.502Z,0.25
2023-04-01T23:08:47.687Z,0.40
2023-04-01T23:10:28.191Z,0.20
2023-04-01T23:12:07.412Z,0.38
2023-04-01T23:13:53.831Z,0.40
2023-04-01T23:17:27.359Z,0.20
2023-04-01T23:19:17.522Z,0.45
2023-04-01T23:21:14.571Z,0.32
2023-04-01T23:23:02.450Z,0.50
2023-04-01T23:24:46.641Z,0.50
2023-04-01T23:26:31.804Z,0.40
2023-04-01T23:28:42.738Z,0.40
2023-04-01T23:30:52.117Z,0.60
2023-04-01T23:34:03.859Z,0.70
2023-04-01T23:35:49.338Z,0.80
2023-04-01T23:37:23.080Z,0.57
2023-04-01T23:38:56.097Z,0.82
2023-04-01T23:40:29.482Z,0.63
2023-04-01T23:42:07.244Z,0.80
2023-04-01T23:43:44.575Z,0.80
2023-04-01T23:45:21.520Z,0.80
2023-04-01T23:46:56.691Z,0.75
2023-04-01T23:48:34.403Z,0.65
2023-04-01T23:50:15.377Z,0.60
2023-04-01T23:52:00.352Z,0.80
2023-04-01T23:53:36.417Z,0.80
2023-04-01T23:55:20.716Z,0.80
2023-04-01T23:56:57.483Z,0.73
2023-04-01T23:58:45.915Z,0.68
